Time;durP1;ratioP1;P1;durP2;ratioP2;P2;SDS_P1;SDS_P2;PMS_P1;PMS_P2;Temp;Humidity;BMP_temperature;BMP_pressure;BME280_temperature;BME280_humidity;BME280_pressure;Samples;Min_cycle;Max_cycle;Signal;HPM_P1;HPM_P2
2023/01/19 00:01:46;;;;;;;6.33;4.90;;;6.20;65.00;5.90;95143.00;;;;5050127;28;20208;-81
2023/01/19 00:04:13;;;;;;;7.07;5.23;;;6.20;65.20;5.90;95135.00;;;;5049100;28;20574;-82
2023/01/19 00:09:22;;;;;;;6.30;4.97;;;6.20;65.00;5.90;95150.00;;;;5051281;28;20197;-82
2023/01/19 00:11:51;;;;;;;6.13;5.40;;;6.20;65.00;5.90;95150.00;;;;5054967;28;20350;-81
2023/01/19 00:14:18;;;;;;;6.23;5.10;;;6.20;65.00;5.90;95159.00;;;;5050069;28;20292;-82
2023/01/19 00:16:46;;;;;;;6.37;5.37;;;6.30;65.20;5.90;95161.00;;;;5052706;28;20794;-81
2023/01/19 00:19:14;;;;;;;6.40;5.20;;;6.20;65.10;5.90;95163.00;;;;5049600;28;20247;-81
2023/01/19 00:21:53;;;;;;;6.20;5.60;;;6.20;65.00;5.90;95171.00;;;;5050284;28;20221;-81
2023/01/19 00:24:20;;;;;;;6.13;4.93;;;6.30;65.20;5.90;95168.00;;;;5051894;28;20196;-80
2023/01/19 00:26:48;;;;;;;7.10;5.40;;;6.20;65.00;5.90;95174.00;;;;5049497;28;20221;-81
2023/01/19 00:29:15;;;;;;;6.67;5.53;;;6.20;65.20;5.90;95177.00;;;;5047406;28;20200;-81
2023/01/19 00:31:47;;;;;;;5.97;4.83;;;6.30;65.40;6.00;95186.00;;;;5048079;28;20212;-80
2023/01/19 00:34:14;;;;;;;7.10;4.93;;;6.30;65.30;6.00;95191.00;;;;5045610;28;20196;-81
2023/01/19 00:36:41;;;;;;;5.80;5.20;;;6.30;65.20;6.00;95197.00;;;;5047818;28;20221;-81
2023/01/19 00:39:09;;;;;;;6.60;5.13;;;6.30;66.00;6.00;95197.00;;;;5047591;28;20287;-81
2023/01/19 00:44:21;;;;;;;8.03;5.60;;;6.30;65.00;6.00;95193.00;;;;5048250;28;20207;-81
2023/01/19 00:46:49;;;;;;;9.13;5.33;;;6.30;65.00;6.00;95196.00;;;;5045799;28;20641;-81
2023/01/19 00:49:17;;;;;;;9.37;5.97;;;6.30;65.20;6.00;95198.00;;;;5049915;28;20235;-81
2023/01/19 00:51:44;;;;;;;5.63;4.93;;;6.40;65.40;6.10;95211.00;;;;5041860;28;20705;-81
2023/01/19 00:54:11;;;;;;;6.07;5.37;;;6.30;65.30;6.10;95205.00;;;;5049469;28;20200;-81
2023/01/19 00:56:39;;;;;;;8.60;5.00;;;6.30;65.00;6.10;95204.00;;;;5046865;28;20213;-81
2023/01/19 00:59:06;;;;;;;7.50;5.53;;;6.30;65.00;6.10;95202.00;;;;5050453;28;20227;-81
2023/01/19 01:01:33;;;;;;;6.07;4.73;;;6.30;65.00;6.10;95206.00;;;;5044789;28;20304;-81
2023/01/19 01:04:02;;;;;;;6.30;5.40;;;6.30;65.00;6.10;95214.00;;;;5050288;28;20193;-81
2023/01/19 01:06:30;;;;;;;7.13;5.60;;;6.40;64.80;6.00;95214.00;;;;5049964;28;20193;-81
2023/01/19 01:08:57;;;;;;;7.33;5.00;;;6.40;64.80;6.10;95223.00;;;;5049694;28;20200;-81
2023/01/19 01:11:25;;;;;;;9.83;4.70;;;6.40;64.90;6.10;95221.00;;;;5052655;28;20220;-81
2023/01/19 01:13:54;;;;;;;5.23;4.63;;;6.40;65.00;6.10;95231.00;;;;5047949;28;20213;-81
2023/01/19 01:16:21;;;;;;;5.90;5.30;;;6.40;65.20;6.10;95229.00;;;;5049258;28;20220;-81
2023/01/19 01:18:49;;;;;;;5.30;4.50;;;6.40;64.80;6.00;95222.00;;;;5050955;28;20204;-81
2023/01/19 01:21:17;;;;;;;7.20;4.67;;;6.30;64.60;6.00;95234.00;;;;5047608;28;20328;-81
2023/01/19 01:23:44;;;;;;;5.73;4.40;;;6.30;64.60;6.00;95236.00;;;;5046564;28;20197;-80
2023/01/19 01:26:11;;;;;;;5.10;4.60;;;6.40;64.70;6.00;95229.00;;;;5048800;28;20197;-81
2023/01/19 01:28:39;;;;;;;5.37;4.37;;;6.30;64.60;6.00;95235.00;;;;5045332;28;20235;-80
2023/01/19 01:31:06;;;;;;;5.67;4.33;;;6.40;64.50;5.90;95231.00;;;;5043355;28;20243;-81
2023/01/19 01:33:33;;;;;;;4.87;4.37;;;6.30;64.40;5.90;95245.00;;;;5047960;28;20197;-81
2023/01/19 01:36:00;;;;;;;4.33;3.93;;;6.30;64.50;5.90;95239.00;;;;5044566;28;20217;-81
2023/01/19 01:38:30;;;;;;;4.80;4.13;;;6.30;64.50;5.90;95237.00;;;;5046328;28;20225;-81
2023/01/19 01:41:00;;;;;;;6.33;4.27;;;6.30;64.50;5.90;95237.00;;;;5049619;28;20393;-81
2023/01/19 01:43:44;;;;;;;6.00;4.40;;;6.30;64.40;5.90;95237.00;;;;5048100;28;20250;-81
2023/01/19 01:46:14;;;;;;;4.77;3.97;;;6.30;64.50;5.90;95236.00;;;;5046810;28;20209;-81
2023/01/19 01:48:46;;;;;;;4.13;3.73;;;6.20;64.20;5.90;95242.00;;;;5049896;28;20291;-81
2023/01/19 01:51:24;;;;;;;5.47;4.87;;;6.20;64.40;5.90;95246.00;;;;5048557;28;21296;-82
2023/01/19 01:54:06;;;;;;;6.03;4.03;;;6.20;64.40;5.80;95243.00;;;;5042454;28;20205;-81
2023/01/19 01:56:38;;;;;;;5.80;3.63;;;6.20;64.10;5.80;95256.00;;;;5046056;28;20227;-81
2023/01/19 01:59:11;;;;;;;4.47;3.67;;;6.20;64.00;5.80;95256.00;;;;5048831;28;20769;-81
2023/01/19 02:04:24;;;;;;;5.33;3.57;;;6.20;63.70;5.80;95261.00;;;;5046041;28;20250;-80
2023/01/19 02:15:20;;;;;;;5.17;3.43;;;6.10;63.90;5.70;95259.00;;;;5046421;28;20203;-80
2023/01/19 02:17:47;;;;;;;7.37;3.70;;;6.20;64.10;5.70;95265.00;;;;5044558;28;20662;-80
2023/01/19 02:20:16;;;;;;;3.70;3.33;;;6.10;64.30;5.70;95269.00;;;;5043385;28;20595;-81
2023/01/19 02:22:49;;;;;;;3.93;3.53;;;6.00;64.40;5.60;95264.00;;;;5046090;28;20199;-81
2023/01/19 02:25:25;;;;;;;3.43;3.13;;;6.10;64.40;5.60;95273.00;;;;5048120;28;20666;-81
2023/01/19 02:27:53;;;;;;;3.73;3.43;;;6.00;64.40;5.60;95266.00;;;;5045799;28;20208;-81
2023/01/19 02:30:21;;;;;;;4.20;3.70;;;6.00;64.40;5.60;95272.00;;;;5047078;28;20220;-81
2023/01/19 02:32:51;;;;;;;3.90;3.33;;;6.00;64.70;5.60;95277.00;;;;5055271;28;20196;-80
2023/01/19 02:35:22;;;;;;;5.50;3.40;;;6.00;64.70;5.60;95269.00;;;;5044355;28;20205;-81
2023/01/19 02:37:50;;;;;;;4.17;3.77;;;5.90;64.60;5.60;95280.00;;;;5050242;28;20642;-81
2023/01/19 02:40:23;;;;;;;4.67;4.03;;;5.90;64.70;5.60;95277.00;;;;5046598;28;20244;-81
2023/01/19 02:42:53;;;;;;;4.23;3.83;;;5.90;64.90;5.60;95281.00;;;;5049609;28;20618;-81
2023/01/19 02:45:22;;;;;;;4.67;3.90;;;5.90;65.00;5.60;95277.00;;;;5050712;28;20878;-80
2023/01/19 02:47:52;;;;;;;4.70;3.80;;;5.90;64.80;5.60;95274.00;;;;5057063;28;20240;-80
2023/01/19 02:50:45;;;;;;;6.70;4.60;;;5.90;64.80;5.50;95278.00;;;;5049250;28;20674;-80
2023/01/19 02:54:06;;;;;;;5.77;4.20;;;5.90;65.20;5.50;95285.00;;;;5033416;28;20201;-81
2023/01/19 02:56:52;;;;;;;5.10;4.60;;;5.90;65.20;5.50;95281.00;;;;4979639;28;20234;-80
2023/01/19 02:59:36;;;;;;;5.37;4.63;;;5.90;65.20;5.50;95291.00;;;;5045360;28;20231;-81
2023/01/19 03:02:29;;;;;;;8.43;5.60;;;5.90;65.30;5.50;95285.00;;;;5052340;28;20223;-81
2023/01/19 03:05:17;;;;;;;6.80;5.10;;;5.90;65.60;5.50;95291.00;;;;5054150;28;20211;-81
2023/01/19 03:07:59;;;;;;;5.83;5.13;;;5.90;65.60;5.50;95293.00;;;;5053608;28;20291;-80
2023/01/19 03:10:41;;;;;;;6.13;4.37;;;5.90;65.50;5.50;95293.00;;;;5047058;28;20209;-81
2023/01/19 03:13:16;;;;;;;7.50;4.50;;;5.90;65.60;5.50;95292.00;;;;5043673;28;20208;-81
2023/01/19 03:15:49;;;;;;;5.00;4.50;;;5.90;65.60;5.50;95283.00;;;;5050869;28;20242;-80
2023/01/19 03:18:25;;;;;;;7.50;5.03;;;5.90;65.60;5.50;95279.00;;;;5051716;28;20224;-81
2023/01/19 03:21:00;;;;;;;6.07;5.00;;;5.80;65.70;5.50;95284.00;;;;5050100;28;20220;-82
2023/01/19 03:23:32;;;;;;;5.53;4.90;;;5.90;65.80;5.50;95292.00;;;;5065224;28;20196;-81
2023/01/19 03:26:04;;;;;;;6.47;4.83;;;5.90;65.70;5.50;95287.00;;;;5055514;28;20278;-81
2023/01/19 03:28:38;;;;;;;5.80;5.10;;;5.90;65.70;5.50;95279.00;;;;5055867;28;20238;-80
2023/01/19 03:31:14;;;;;;;5.50;5.00;;;5.90;65.80;5.50;95282.00;;;;5057131;28;20217;-80
2023/01/19 03:33:50;;;;;;;6.87;4.97;;;5.90;65.80;5.50;95279.00;;;;5057538;28;20650;-80
2023/01/19 03:36:28;;;;;;;5.53;5.03;;;5.90;65.80;5.50;95284.00;;;;5055632;28;20692;-81
2023/01/19 03:39:01;;;;;;;6.33;5.03;;;5.90;65.80;5.60;95283.00;;;;5047417;28;20734;-81
2023/01/19 03:41:33;;;;;;;6.67;5.83;;;5.90;66.00;5.60;95285.00;;;;5058373;28;20223;-81
2023/01/19 03:44:04;;;;;;;6.23;5.50;;;5.90;65.90;5.60;95291.00;;;;5049426;28;20207;-81
2023/01/19 03:46:36;;;;;;;6.77;5.53;;;5.90;65.90;5.60;95289.00;;;;5048222;28;20224;-80
2023/01/19 03:49:03;;;;;;;5.97;5.37;;;5.90;65.90;5.50;95287.00;;;;5053535;28;20691;-81
2023/01/19 03:51:42;;;;;;;6.10;5.50;;;5.90;65.80;5.50;95282.00;;;;5053223;28;20231;-81
2023/01/19 03:54:34;;;;;;;8.20;6.27;;;5.90;65.90;5.50;95294.00;;;;5060824;28;20254;-81
2023/01/19 03:57:08;;;;;;;6.47;5.67;;;5.90;66.20;5.50;95290.00;;;;5040542;28;20224;-81
2023/01/19 03:59:39;;;;;;;8.20;5.60;;;5.90;66.10;5.50;95287.00;;;;5048048;28;20227;-81
2023/01/19 04:02:06;;;;;;;6.13;5.53;;;5.80;65.90;5.50;95286.00;;;;5045077;28;20231;-81
2023/01/19 04:04:44;;;;;;;6.77;5.93;;;5.80;65.80;5.40;95288.00;;;;5046136;28;20475;-81
2023/01/19 04:07:17;;;;;;;6.20;5.57;;;5.80;65.80;5.40;95291.00;;;;5046102;28;20204;-81
2023/01/19 04:09:44;;;;;;;7.80;6.00;;;5.80;66.00;5.40;95297.00;;;;5045762;28;20299;-80
2023/01/19 04:12:12;;;;;;;6.50;5.50;;;5.70;65.80;5.40;95292.00;;;;5046634;28;20224;-81
2023/01/19 04:14:40;;;;;;;6.70;6.10;;;5.80;65.90;5.30;95289.00;;;;5048104;28;20212;-80
2023/01/19 04:17:09;;;;;;;7.60;5.77;;;5.70;65.90;5.30;95292.00;;;;5047134;28;20247;-81
2023/01/19 04:19:39;;;;;;;10.10;7.67;;;5.70;65.90;5.30;95291.00;;;;5052617;28;20193;-81
2023/01/19 04:22:09;;;;;;;8.20;6.33;;;5.70;66.00;5.30;95291.00;;;;5051603;28;20235;-81
2023/01/19 04:24:41;;;;;;;6.60;5.90;;;5.70;66.00;5.30;95293.00;;;;5047395;28;20197;-81
2023/01/19 04:27:15;;;;;;;12.03;8.13;;;5.60;65.80;5.20;95287.00;;;;5050394;28;20185;-81
2023/01/19 04:29:47;;;;;;;9.23;7.20;;;5.70;66.00;5.20;95286.00;;;;5050195;28;20196;-80
2023/01/19 04:32:17;;;;;;;6.50;5.53;;;5.60;66.10;5.20;95291.00;;;;5051151;28;20228;-81
2023/01/19 04:34:44;;;;;;;7.57;6.40;;;5.60;66.00;5.20;95292.00;;;;5054940;28;20224;-80
2023/01/19 04:37:12;;;;;;;8.27;6.33;;;5.60;65.90;5.10;95286.00;;;;5052360;28;20262;-81
2023/01/19 04:39:41;;;;;;;6.43;5.83;;;5.60;66.60;5.10;95282.00;;;;5049090;28;20189;-81
2023/01/19 04:42:11;;;;;;;10.33;8.07;;;5.50;65.90;5.10;95288.00;;;;5046797;28;20447;-81
2023/01/19 04:44:39;;;;;;;12.73;9.23;;;5.50;65.90;5.10;95289.00;;;;5044498;28;20764;-81
2023/01/19 04:47:07;;;;;;;8.70;7.07;;;5.50;66.00;5.00;95292.00;;;;5045954;28;20533;-82
2023/01/19 04:49:42;;;;;;;6.90;5.73;;;5.50;66.10;5.00;95293.00;;;;5053847;28;20966;-82
2023/01/19 04:52:22;;;;;;;8.17;6.07;;;5.40;65.90;4.90;95293.00;;;;5052695;28;20295;-81
2023/01/19 04:54:49;;;;;;;6.77;5.70;;;5.40;65.80;4.90;95294.00;;;;5046734;28;20708;-81
2023/01/19 04:57:25;;;;;;;6.13;5.63;;;5.40;65.90;4.90;95294.00;;;;5045199;28;20698;-82
2023/01/19 05:00:01;;;;;;;6.87;5.80;;;5.30;65.90;4.80;95293.00;;;;5047607;28;20617;-81
2023/01/19 05:02:34;;;;;;;8.77;5.97;;;5.30;65.80;4.80;95290.00;;;;5046920;28;20258;-81
2023/01/19 05:05:15;;;;;;;6.80;5.43;;;5.30;65.80;4.70;95300.00;;;;5045463;28;20258;-80
2023/01/19 05:07:43;;;;;;;8.33;6.43;;;5.30;65.90;4.70;95305.00;;;;5051991;28;20487;-80
2023/01/19 05:10:28;;;;;;;7.47;6.30;;;5.20;65.70;4.60;95308.00;;;;5048353;28;20217;-80
2023/01/19 05:12:57;;;;;;;6.70;5.93;;;5.20;66.40;4.60;95309.00;;;;5047924;28;20473;-81
2023/01/19 05:15:27;;;;;;;8.03;5.90;;;5.10;65.70;4.50;95308.00;;;;5045847;28;20482;-80
2023/01/19 05:18:00;;;;;;;7.20;6.50;;;5.10;65.80;4.50;95304.00;;;;5045675;28;20274;-81
2023/01/19 05:20:27;;;;;;;7.43;5.80;;;5.10;65.90;4.50;95304.00;;;;5042324;28;20518;-82
2023/01/19 05:22:55;;;;;;;6.23;5.63;;;5.00;65.90;4.50;95312.00;;;;5046309;28;20232;-82
2023/01/19 05:25:24;;;;;;;6.37;5.67;;;5.00;66.00;4.50;95312.00;;;;5040638;28;21017;-82
2023/01/19 05:27:54;;;;;;;6.30;5.70;;;5.00;66.10;4.50;95312.00;;;;5047644;28;20483;-82
2023/01/19 05:30:23;;;;;;;9.23;6.90;;;5.00;66.20;4.50;95311.00;;;;5044356;28;20267;-81
2023/01/19 05:33:14;;;;;;;7.20;6.47;;;4.90;66.10;4.50;95312.00;;;;5051438;28;20651;-81
2023/01/19 05:35:46;;;;;;;7.80;6.97;;;4.90;66.10;4.40;95313.00;;;;5047494;28;20444;-80
2023/01/19 05:38:18;;;;;;;6.50;5.90;;;4.80;66.00;4.40;95316.00;;;;5049750;28;20274;-81
2023/01/19 05:40:51;;;;;;;7.00;6.10;;;5.00;66.10;4.40;95320.00;;;;5050240;28;20475;-79
2023/01/19 05:43:18;;;;;;;7.40;6.63;;;4.90;65.90;4.40;95324.00;;;;5049745;28;20686;-81
2023/01/19 05:45:45;;;;;;;8.97;6.30;;;4.90;65.90;4.30;95329.00;;;;5049928;28;20520;-81
2023/01/19 05:48:15;;;;;;;7.23;6.53;;;4.80;65.80;4.30;95328.00;;;;5049189;28;20455;-80
2023/01/19 05:50:42;;;;;;;9.77;6.43;;;4.80;66.10;4.30;95332.00;;;;5045800;28;20505;-80
2023/01/19 05:53:13;;;;;;;7.27;6.33;;;4.80;66.10;4.30;95334.00;;;;5047455;28;20459;-80
2023/01/19 05:55:57;;;;;;;8.63;6.33;;;4.80;66.10;4.30;95334.00;;;;5043390;28;21272;-81
2023/01/19 05:58:37;;;;;;;7.43;6.37;;;4.80;66.00;4.20;95336.00;;;;5037910;28;20469;-81
2023/01/19 06:01:32;;;;;;;6.83;6.13;;;4.70;66.00;4.20;95343.00;;;;5046349;28;20544;-79
2023/01/19 06:04:22;;;;;;;6.27;5.70;;;4.70;66.20;4.20;95352.00;;;;5051007;28;20512;-79
2023/01/19 06:10:00;;;;;;;8.37;5.33;;;4.70;66.50;4.20;95354.00;;;;5049093;28;21066;-80
2023/01/19 06:12:34;;;;;;;6.73;6.07;;;4.70;66.50;4.30;95356.00;;;;5051057;28;20851;-82
2023/01/19 06:15:11;;;;;;;8.23;6.03;;;4.70;66.50;4.30;95360.00;;;;5051370;28;20962;-82
2023/01/19 06:17:38;;;;;;;6.97;6.27;;;4.70;66.60;4.30;95365.00;;;;5049924;28;20486;-83
2023/01/19 06:20:13;;;;;;;7.03;5.93;;;4.70;66.40;4.30;95375.00;;;;5046258;28;20470;-83
2023/01/19 06:22:41;;;;;;;8.83;6.13;;;4.70;66.40;4.30;95375.00;;;;5048068;28;20451;-82
2023/01/19 06:25:11;;;;;;;6.37;5.77;;;4.70;66.40;4.30;95383.00;;;;5043391;28;20448;-81
2023/01/19 06:27:44;;;;;;;8.33;6.13;;;4.70;66.50;4.40;95378.00;;;;5047510;28;20451;-82
2023/01/19 06:30:20;;;;;;;7.20;6.30;;;4.70;66.60;4.40;95386.00;;;;5046910;28;20474;-83
2023/01/19 06:32:48;;;;;;;10.30;6.70;;;4.70;66.60;4.40;95390.00;;;;5046750;28;20509;-83
2023/01/19 06:35:18;;;;;;;8.83;7.77;;;4.80;66.60;4.40;95394.00;;;;5055924;28;20451;-84
2023/01/19 06:37:45;;;;;;;8.73;7.70;;;4.80;66.70;4.40;95388.00;;;;5055401;28;20486;-81
2023/01/19 06:40:18;;;;;;;9.07;7.57;;;4.80;66.60;4.40;95395.00;;;;5042494;28;21597;-83
2023/01/19 06:42:49;;;;;;;7.77;6.97;;;4.80;66.60;4.50;95390.00;;;;5059470;28;20927;-83
2023/01/19 06:45:16;;;;;;;8.00;6.43;;;4.80;66.60;4.50;95405.00;;;;5053896;28;20963;-82
2023/01/19 06:47:47;;;;;;;8.17;7.00;;;4.80;66.50;4.60;95400.00;;;;5055353;28;20458;-82
2023/01/19 06:50:16;;;;;;;6.83;6.23;;;4.90;66.50;4.60;95399.00;;;;5058473;28;20471;-83
2023/01/19 06:52:43;;;;;;;7.50;6.53;;;4.90;66.40;4.70;95402.00;;;;5040337;28;20194;-84
2023/01/19 06:55:12;;;;;;;8.07;6.93;;;4.90;66.20;4.80;95402.00;;;;5055904;28;20483;-82
2023/01/19 06:57:40;;;;;;;13.43;7.50;;;5.00;66.30;4.80;95408.00;;;;5056184;28;20220;-82
2023/01/19 07:00:10;;;;;;;6.53;5.87;;;5.00;66.30;4.90;95414.00;;;;5046738;28;20546;-81
2023/01/19 07:02:41;;;;;;;10.73;6.43;;;5.00;66.30;4.90;95422.00;;;;5056325;28;20181;-84
2023/01/19 07:05:45;;;;;;;6.97;5.80;;;5.10;66.20;5.00;95428.00;;;;5048136;28;20196;-84
2023/01/19 07:08:18;;;;;;;12.80;6.33;;;5.10;66.20;5.00;95427.00;;;;5049639;28;20466;-86
2023/01/19 07:10:45;;;;;;;15.80;7.00;;;5.20;66.30;5.00;95421.00;;;;5060139;28;20224;-80
2023/01/19 07:13:12;;;;;;;14.53;6.37;;;5.20;66.30;5.10;95423.00;;;;5050745;28;20209;-79
2023/01/19 07:16:05;;;;;;;7.43;6.73;;;5.20;66.30;5.10;95427.00;;;;5050421;28;20582;-78
2023/01/19 07:18:33;;;;;;;6.40;5.60;;;5.20;66.10;5.10;95425.00;;;;5049662;28;20220;-78
2023/01/19 07:21:05;;;;;;;7.10;6.40;;;5.20;65.80;5.10;95429.00;;;;5048796;28;20216;-77
2023/01/19 07:23:42;;;;;;;8.27;6.57;;;5.30;65.50;5.10;95434.00;;;;5050972;28;20246;-78
2023/01/19 07:26:20;;;;;;;9.57;6.37;;;5.30;65.40;5.00;95436.00;;;;5051821;28;20693;-79
2023/01/19 07:29:07;;;;;;;9.53;6.23;;;5.30;65.40;5.00;95428.00;;;;5053974;28;20850;-79
2023/01/19 07:31:54;;;;;;;6.57;5.97;;;5.30;65.40;5.00;95441.00;;;;5052721;28;20243;-79
2023/01/19 07:34:21;;;;;;;8.63;6.23;;;5.30;65.40;5.00;95445.00;;;;5044628;28;20459;-80
2023/01/19 07:36:54;;;;;;;10.23;6.23;;;5.30;65.30;5.00;95438.00;;;;5052138;28;20221;-80
2023/01/19 07:39:29;;;;;;;6.57;5.87;;;5.20;65.20;5.00;95434.00;;;;5047557;28;20244;-79
2023/01/19 07:42:05;;;;;;;10.00;6.07;;;5.20;65.20;5.00;95436.00;;;;5053095;28;20208;-79
2023/01/19 07:44:41;;;;;;;8.20;6.00;;;5.20;65.20;5.00;95439.00;;;;5053830;28;20438;-80
2023/01/19 07:47:12;;;;;;;9.53;6.47;;;5.20;65.20;5.00;95450.00;;;;5055540;28;20234;-79
2023/01/19 07:49:43;;;;;;;10.33;7.33;;;5.20;65.20;5.00;95459.00;;;;5050874;28;20238;-79
2023/01/19 07:52:11;;;;;;;14.77;7.07;;;5.20;65.10;5.00;95459.00;;;;5055652;28;20443;-79
2023/01/19 07:54:40;;;;;;;8.13;6.17;;;5.30;65.20;5.00;95446.00;;;;5056551;28;20863;-80
2023/01/19 07:57:13;;;;;;;8.00;6.23;;;5.20;65.80;5.00;95454.00;;;;5061771;28;20580;-80
2023/01/19 07:59:40;;;;;;;8.27;5.60;;;5.30;65.10;5.00;95454.00;;;;5057429;28;20622;-80
2023/01/19 08:02:12;;;;;;;7.83;5.73;;;5.30;65.10;5.00;95465.00;;;;5058255;28;20196;-80
2023/01/19 08:04:39;;;;;;;7.57;6.03;;;5.30;65.10;5.00;95464.00;;;;5053795;28;20208;-80
2023/01/19 08:07:08;;;;;;;6.40;5.70;;;5.30;65.00;5.00;95470.00;;;;5057828;28;20650;-79
2023/01/19 08:09:37;;;;;;;8.60;6.30;;;5.30;64.90;5.00;95466.00;;;;5058951;28;20212;-80
2023/01/19 08:12:05;;;;;;;7.07;6.30;;;5.30;64.70;5.00;95458.00;;;;5055288;28;20461;-80
2023/01/19 08:14:33;;;;;;;6.77;5.97;;;5.20;64.50;5.00;95468.00;;;;5055135;28;20634;-79
2023/01/19 08:17:01;;;;;;;8.20;6.87;;;5.20;64.30;5.00;95470.00;;;;5047315;28;20473;-79
2023/01/19 08:19:29;;;;;;;6.70;6.00;;;5.20;64.30;5.00;95474.00;;;;5056799;28;20558;-79
2023/01/19 08:21:57;;;;;;;8.77;6.23;;;5.20;64.30;4.90;95474.00;;;;5055978;28;20693;-79
2023/01/19 08:24:27;;;;;;;7.47;6.40;;;5.20;64.30;4.90;95480.00;;;;5057985;28;20189;-80
2023/01/19 08:27:01;;;;;;;8.63;6.30;;;5.20;64.30;4.90;95476.00;;;;5054682;28;20931;-79
2023/01/19 08:29:31;;;;;;;7.07;6.33;;;5.20;64.30;4.90;95483.00;;;;5051129;28;20460;-79
2023/01/19 08:32:01;;;;;;;6.70;6.00;;;5.20;64.20;4.90;95483.00;;;;5057183;28;20213;-80
2023/01/19 08:34:30;;;;;;;6.93;6.13;;;5.20;64.20;4.90;95489.00;;;;5058438;28;20217;-79
2023/01/19 08:36:59;;;;;;;8.80;6.70;;;5.20;64.10;4.90;95493.00;;;;5058287;28;20192;-80
2023/01/19 08:39:26;;;;;;;7.87;6.57;;;5.20;64.10;4.90;95484.00;;;;5057042;28;20220;-79
2023/01/19 08:41:54;;;;;;;7.33;6.17;;;5.10;64.10;4.90;95496.00;;;;5056258;28;20212;-79
2023/01/19 08:44:22;;;;;;;9.63;6.70;;;5.10;64.20;4.90;95495.00;;;;5056514;28;20599;-79
2023/01/19 08:46:50;;;;;;;11.43;6.73;;;5.10;64.30;4.90;95499.00;;;;5056950;28;20431;-79
2023/01/19 08:49:17;;;;;;;9.80;6.50;;;5.10;64.60;5.00;95497.00;;;;5057443;28;20916;-79
2023/01/19 08:51:46;;;;;;;6.87;6.17;;;5.20;64.60;5.00;95501.00;;;;5053424;28;20285;-79
2023/01/19 08:54:15;;;;;;;7.10;6.17;;;5.20;64.60;5.00;95497.00;;;;5049953;28;20197;-80
2023/01/19 08:56:43;;;;;;;6.93;6.23;;;5.20;64.30;5.00;95505.00;;;;5054365;28;20193;-80
2023/01/19 08:59:10;;;;;;;8.90;6.67;;;5.20;64.20;5.00;95520.00;;;;5055991;28;20221;-79
2023/01/19 09:01:38;;;;;;;9.27;6.47;;;5.20;64.20;5.10;95514.00;;;;5056257;28;20225;-79
2023/01/19 09:04:15;;;;;;;9.37;6.43;;;5.30;64.30;5.10;95514.00;;;;5056505;28;20200;-80
2023/01/19 09:06:42;;;;;;;8.47;6.50;;;5.30;64.10;5.10;95513.00;;;;5055016;28;20189;-79
2023/01/19 09:09:09;;;;;;;8.00;7.13;;;5.30;63.90;5.10;95514.00;;;;5055165;28;20263;-80
2023/01/19 09:11:36;;;;;;;9.47;6.77;;;5.20;63.50;5.00;95514.00;;;;5055583;28;20657;-79
2023/01/19 09:14:04;;;;;;;10.30;6.63;;;5.30;63.70;5.10;95520.00;;;;5054995;28;20235;-80
2023/01/19 09:16:33;;;;;;;9.40;6.33;;;5.30;63.90;5.10;95523.00;;;;5054087;28;20742;-80
2023/01/19 09:19:02;;;;;;;8.90;6.43;;;5.30;63.90;5.10;95516.00;;;;5054725;28;20514;-79
2023/01/19 09:24:14;;;;;;;17.73;6.93;;;5.30;63.80;5.10;95514.00;;;;5055174;28;20207;-79
2023/01/19 09:26:41;;;;;;;12.87;7.57;;;5.30;63.90;5.20;95516.00;;;;5055957;28;20227;-79
2023/01/19 09:29:08;;;;;;;9.30;6.60;;;5.40;64.20;5.30;95516.00;;;;5050184;28;20200;-80
2023/01/19 09:31:38;;;;;;;7.97;6.20;;;5.40;64.20;5.30;95524.00;;;;5054077;28;20259;-80
2023/01/19 09:34:07;;;;;;;8.03;6.87;;;5.50;64.20;5.40;95525.00;;;;5044318;28;20547;-80
2023/01/19 09:36:38;;;;;;;9.17;6.50;;;5.50;63.90;5.40;95532.00;;;;5067189;28;20220;-80
2023/01/19 09:39:11;;;;;;;7.30;6.33;;;5.60;63.90;5.40;95529.00;;;;5057252;28;20212;-80
2023/01/19 09:41:45;;;;;;;8.90;6.50;;;5.60;63.70;5.50;95530.00;;;;5052148;28;20224;-80
2023/01/19 09:44:26;;;;;;;8.20;6.23;;;5.60;63.60;5.50;95527.00;;;;5038273;28;20204;-80
2023/01/19 09:46:56;;;;;;;7.03;5.70;;;5.70;63.40;5.50;95530.00;;;;5051236;28;20193;-79
2023/01/19 09:49:40;;;;;;;7.90;6.00;;;5.70;63.50;5.60;95523.00;;;;5053037;28;20201;-80
2023/01/19 09:52:13;;;;;;;6.80;5.93;;;5.70;63.30;5.60;95527.00;;;;5040840;28;20213;-79
2023/01/19 09:54:49;;;;;;;7.20;5.37;;;5.80;63.20;5.60;95529.00;;;;5055681;28;20200;-79
2023/01/19 09:57:16;;;;;;;6.57;5.77;;;5.80;63.20;5.70;95516.00;;;;5051810;28;20228;-80
2023/01/19 09:59:47;;;;;;;8.33;5.77;;;5.80;63.30;5.70;95518.00;;;;5048200;28;20220;-80
2023/01/19 10:02:32;;;;;;;8.50;5.87;;;5.90;63.30;5.80;95519.00;;;;5049969;28;20196;-80
2023/01/19 10:05:03;;;;;;;7.23;6.03;;;5.90;63.10;5.80;95529.00;;;;5051549;28;20196;-80
2023/01/19 10:07:51;;;;;;;8.27;6.30;;;6.00;63.20;5.90;95525.00;;;;5054644;28;20447;-80
2023/01/19 10:10:22;;;;;;;8.93;5.43;;;6.00;63.10;5.90;95521.00;;;;5053633;28;20304;-82
2023/01/19 10:13:11;;;;;;;8.43;6.00;;;6.10;63.00;6.00;95530.00;;;;5050949;28;20281;-80
2023/01/19 10:15:52;;;;;;;6.93;6.23;;;6.10;62.80;6.00;95526.00;;;;5043820;28;20198;-79
2023/01/19 10:18:29;;;;;;;6.50;5.80;;;6.20;62.80;6.00;95530.00;;;;5050002;28;20303;-79
2023/01/19 10:21:06;;;;;;;6.93;5.60;;;6.20;62.50;6.00;95530.00;;;;5051330;28;20270;-80
2023/01/19 10:23:41;;;;;;;7.60;6.13;;;6.20;62.20;6.10;95529.00;;;;5053904;28;20242;-80
2023/01/19 10:26:15;;;;;;;6.83;5.33;;;6.20;62.20;6.10;95524.00;;;;5059165;28;20196;-80
2023/01/19 10:28:47;;;;;;;6.27;5.67;;;6.20;62.30;6.10;95531.00;;;;5049474;28;20189;-80
2023/01/19 10:31:20;;;;;;;6.73;5.70;;;6.30;62.40;6.20;95528.00;;;;5051413;28;20219;-80
2023/01/19 10:33:48;;;;;;;7.47;6.23;;;6.30;62.20;6.20;95533.00;;;;5050507;28;20199;-80
2023/01/19 10:36:28;;;;;;;6.40;5.57;;;6.30;62.40;6.30;95529.00;;;;5056194;28;20228;-80
2023/01/19 10:38:58;;;;;;;5.60;4.97;;;6.40;62.30;6.40;95536.00;;;;5047240;28;20248;-80
2023/01/19 10:41:38;;;;;;;6.70;5.70;;;6.40;62.20;6.40;95530.00;;;;5054508;28;20693;-80
2023/01/19 10:44:08;;;;;;;7.63;4.90;;;6.50;62.20;6.40;95527.00;;;;5051748;28;20374;-80
2023/01/19 10:46:43;;;;;;;6.83;5.63;;;6.60;61.80;6.50;95527.00;;;;5051575;28;20200;-81
2023/01/19 10:49:30;;;;;;;5.97;5.37;;;6.60;62.20;6.40;95527.00;;;;5050797;28;20204;-81
2023/01/19 10:52:03;;;;;;;6.37;5.73;;;6.70;60.80;6.40;95526.00;;;;5050694;28;20639;-80
2023/01/19 10:54:36;;;;;;;5.63;5.13;;;6.70;60.60;6.40;95519.00;;;;5047850;28;20196;-80
2023/01/19 10:57:08;;;;;;;6.77;6.00;;;6.70;60.70;6.40;95520.00;;;;5051729;28;20197;-80
2023/01/19 10:59:38;;;;;;;8.60;5.50;;;6.70;61.00;6.50;95528.00;;;;5052852;28;20216;-80
2023/01/19 11:02:28;;;;;;;6.07;5.47;;;6.70;61.20;6.60;95532.00;;;;5048368;28;20193;-80
2023/01/19 11:04:59;;;;;;;12.97;5.27;;;6.80;61.40;6.70;95526.00;;;;5041941;28;20201;-81
2023/01/19 11:07:34;;;;;;;6.80;5.83;;;6.80;61.60;6.80;95527.00;;;;5049541;28;20209;-81
2023/01/19 11:10:23;;;;;;;9.37;5.43;;;6.90;61.60;6.80;95522.00;;;;5054297;28;20590;-81
2023/01/19 11:13:02;;;;;;;6.87;5.33;;;6.90;61.10;6.80;95528.00;;;;5053946;28;20200;-82
2023/01/19 11:15:36;;;;;;;7.67;5.67;;;7.00;61.00;6.90;95523.00;;;;5054169;28;20743;-81
2023/01/19 11:18:06;;;;;;;6.90;5.37;;;7.00;60.90;6.90;95523.00;;;;5061013;28;20193;-80
2023/01/19 11:20:49;;;;;;;7.97;5.20;;;7.00;61.00;6.90;95531.00;;;;5055070;28;20648;-81
2023/01/19 11:23:27;;;;;;;15.47;7.03;;;7.10;60.90;6.90;95520.00;;;;5062834;28;20436;-81
2023/01/19 11:26:01;;;;;;;8.23;6.03;;;7.00;60.80;7.00;95508.00;;;;5060080;28;20193;-81
2023/01/19 11:28:36;;;;;;;6.87;5.20;;;7.10;60.80;7.00;95517.00;;;;5064817;28;20187;-81
2023/01/19 11:31:19;;;;;;;6.43;4.93;;;7.10;60.60;7.00;95512.00;;;;5065065;28;20241;-83
2023/01/19 11:33:50;;;;;;;6.83;5.63;;;7.20;60.00;7.00;95513.00;;;;5058965;28;20338;-83
2023/01/19 11:36:20;;;;;;;5.37;4.90;;;7.20;60.00;7.00;95504.00;;;;5051715;28;20220;-83
2023/01/19 11:38:52;;;;;;;5.83;4.77;;;7.20;59.80;7.00;95511.00;;;;5052936;28;20248;-83
2023/01/19 11:41:22;;;;;;;6.50;4.60;;;7.20;59.80;7.00;95509.00;;;;5053731;28;20457;-83
2023/01/19 11:43:54;;;;;;;5.20;4.70;;;7.20;60.40;7.00;95502.00;;;;5047567;28;20725;-84
2023/01/19 11:46:24;;;;;;;5.67;4.97;;;7.20;59.60;7.10;95494.00;;;;5060952;28;20695;-83
2023/01/19 11:49:00;;;;;;;8.77;5.53;;;7.20;59.60;7.10;95493.00;;;;5051151;28;20205;-84
2023/01/19 11:51:36;;;;;;;5.37;4.83;;;7.20;59.70;7.10;95495.00;;;;5051784;28;20216;-85
2023/01/19 11:54:22;;;;;;;8.63;5.90;;;7.30;59.90;7.10;95497.00;;;;5052091;28;20208;-84
2023/01/19 11:56:52;;;;;;;5.70;4.90;;;7.30;59.80;7.10;95492.00;;;;5054082;28;20287;-85